Time;durP1;ratioP1;P1;durP2;ratioP2;P2;SDS_P1;SDS_P2;PMS_P1;PMS_P2;Temp;Humidity;BMP_temperature;BMP_pressure;BME280_temperature;BME280_humidity;BME280_pressure;Samples;Min_cycle;Max_cycle;Signal;HPM_P1;HPM_P2
2022/11/09 00:00:45;;;;;;;57.70;25.63;;;;;;;9.09;75.21;94494.28;5064971;28;20025;-80
2022/11/09 00:03:11;;;;;;;49.90;24.55;;;;;;;9.03;75.34;94501.53;5063691;28;20021;-81
2022/11/09 00:05:36;;;;;;;46.08;23.50;;;;;;;9.07;75.56;94506.28;5064812;28;20091;-82
2022/11/09 00:08:09;;;;;;;44.80;23.60;;;;;;;9.06;75.36;94499.38;5064443;28;20021;-79
2022/11/09 00:10:35;;;;;;;44.45;21.55;;;;;;;9.04;75.51;94502.34;5064719;28;20021;-78
2022/11/09 00:13:00;;;;;;;41.90;21.88;;;;;;;8.96;75.72;94509.09;5064577;28;20056;-79
2022/11/09 00:15:26;;;;;;;38.78;21.77;;;;;;;8.93;76.34;94512.31;5064634;28;20025;-80
2022/11/09 00:17:52;;;;;;;47.83;22.38;;;;;;;8.88;76.54;94507.06;5063471;28;20196;-79
2022/11/09 00:20:17;;;;;;;40.30;21.30;;;;;;;8.88;76.87;94508.94;5064711;28;20025;-80
2022/11/09 00:22:47;;;;;;;41.55;22.77;;;;;;;8.88;76.84;94514.25;5064339;28;20329;-78
2022/11/09 00:25:13;;;;;;;39.55;21.98;;;;;;;8.84;77.11;94503.41;5064351;28;20028;-78
2022/11/09 00:27:38;;;;;;;43.13;21.67;;;;;;;8.81;77.41;94509.28;5064349;28;20396;-78
2022/11/09 00:30:04;;;;;;;43.28;21.23;;;;;;;8.83;77.92;94501.81;5064321;28;20338;-79
2022/11/09 00:32:29;;;;;;;39.55;22.02;;;;;;;8.83;78.54;94505.28;5064266;28;20292;-79
2022/11/09 00:34:55;;;;;;;40.47;21.25;;;;;;;8.82;78.35;94510.88;5064214;28;20030;-79
2022/11/09 00:37:20;;;;;;;39.88;21.42;;;;;;;8.83;78.44;94509.78;5064145;28;20021;-78
2022/11/09 00:39:46;;;;;;;41.78;22.23;;;;;;;8.76;77.88;94512.78;5064196;28;20013;-79
2022/11/09 00:42:11;;;;;;;37.15;19.55;;;;;;;8.73;77.99;94499.28;5063973;28;20025;-81
2022/11/09 00:44:36;;;;;;;39.35;21.52;;;;;;;8.70;77.69;94502.53;5063832;28;20016;-80
2022/11/09 00:47:02;;;;;;;43.03;21.67;;;;;;;8.74;77.64;94500.88;5064094;28;20092;-80
2022/11/09 00:49:27;;;;;;;37.72;20.23;;;;;;;8.77;77.84;94503.75;5063687;28;20222;-81
2022/11/09 00:51:53;;;;;;;45.00;21.42;;;;;;;8.76;78.02;94501.38;5063876;28;20108;-81
2022/11/09 00:54:18;;;;;;;40.38;22.38;;;;;;;8.78;78.49;94504.53;5064065;28;20326;-81
2022/11/09 00:56:44;;;;;;;39.97;22.20;;;;;;;8.80;78.67;94497.06;5063465;28;20256;-81
2022/11/09 00:59:10;;;;;;;43.70;21.42;;;;;;;8.78;78.50;94496.56;5063714;28;20092;-81
2022/11/09 01:01:36;;;;;;;40.67;20.90;;;;;;;8.77;78.53;94493.13;5063739;28;20021;-81
2022/11/09 01:04:01;;;;;;;39.72;21.52;;;;;;;8.78;78.74;94501.88;5063672;28;20027;-81
2022/11/09 01:06:27;;;;;;;44.33;22.83;;;;;;;8.78;78.88;94492.03;5063492;28;20062;-81
2022/11/09 01:08:53;;;;;;;41.17;21.35;;;;;;;8.80;78.98;94497.06;5062963;28;20024;-81
2022/11/09 01:11:20;;;;;;;38.65;21.20;;;;;;;8.77;78.92;94498.44;5063658;28;20095;-82
2022/11/09 01:13:45;;;;;;;46.45;23.02;;;;;;;8.76;78.97;94501.38;5063434;28;20017;-82
2022/11/09 01:16:14;;;;;;;45.97;23.27;;;;;;;8.74;79.71;94499.00;5063481;28;20147;-83
2022/11/09 01:18:40;;;;;;;42.83;23.85;;;;;;;8.72;80.50;94505.69;5063292;28;20402;-82
2022/11/09 01:21:09;;;;;;;40.53;22.83;;;;;;;8.71;80.78;94504.09;5063394;28;20210;-83
2022/11/09 01:23:35;;;;;;;41.13;21.23;;;;;;;8.68;80.81;94499.34;5063298;28;20095;-83
2022/11/09 01:26:07;;;;;;;41.72;23.52;;;;;;;8.67;80.29;94497.75;5063215;28;20051;-83
2022/11/09 01:28:33;;;;;;;46.97;23.23;;;;;;;8.65;80.35;94506.03;5063138;28;20044;-83
2022/11/09 01:31:13;;;;;;;43.08;22.60;;;;;;;8.64;79.90;94504.44;5063237;28;20318;-83
2022/11/09 01:33:39;;;;;;;41.88;21.50;;;;;;;8.63;79.40;94493.03;5063134;28;20226;-83
2022/11/09 01:36:09;;;;;;;40.35;21.58;;;;;;;8.63;78.76;94500.22;5063053;28;20025;-82
2022/11/09 01:38:36;;;;;;;43.33;20.58;;;;;;;8.59;78.63;94496.53;5063095;28;20097;-82
2022/11/09 01:41:02;;;;;;;42.35;21.02;;;;;;;8.58;78.60;94493.06;5061941;28;20021;-81
2022/11/09 01:43:28;;;;;;;38.10;20.58;;;;;;;8.59;77.99;94492.00;5063152;28;20086;-81
2022/11/09 01:46:08;;;;;;;39.08;21.20;;;;;;;8.57;77.94;94494.16;5062994;28;20318;-81
2022/11/09 01:48:44;;;;;;;43.92;21.38;;;;;;;8.51;77.80;94487.34;5061778;28;20117;-81
2022/11/09 01:51:36;;;;;;;41.97;21.83;;;;;;;8.49;77.85;94491.31;5062940;28;20047;-80
2022/11/09 01:54:09;;;;;;;43.13;20.33;;;;;;;8.46;77.53;94484.72;5062856;28;20051;-80
2022/11/09 01:56:35;;;;;;;42.75;22.25;;;;;;;8.44;77.68;94485.00;5062680;28;20060;-81
2022/11/09 01:59:09;;;;;;;37.85;20.23;;;;;;;8.40;77.73;94491.13;5062728;28;20029;-81
2022/11/09 02:01:35;;;;;;;39.35;21.92;;;;;;;8.40;77.46;94483.94;5062765;28;20036;-81
2022/11/09 02:04:15;;;;;;;35.03;19.63;;;;;;;8.34;77.06;94486.97;5061580;28;20074;-82
2022/11/09 02:06:40;;;;;;;46.28;20.58;;;;;;;8.29;77.22;94487.03;5062792;28;20032;-82
2022/11/09 02:09:17;;;;;;;39.80;20.77;;;;;;;8.26;77.54;94498.19;5062470;28;20438;-83
2022/11/09 02:11:43;;;;;;;38.08;21.17;;;;;;;8.22;78.92;94488.16;5062831;28;20025;-84
2022/11/09 02:14:08;;;;;;;41.83;22.45;;;;;;;8.24;79.09;94493.97;5062601;28;20338;-82
2022/11/09 02:16:34;;;;;;;38.97;21.80;;;;;;;8.22;78.94;94488.16;5062568;28;20025;-82
2022/11/09 02:19:00;;;;;;;40.47;22.58;;;;;;;8.16;79.51;94494.59;5062433;28;20043;-83
2022/11/09 02:21:28;;;;;;;37.95;20.23;;;;;;;8.16;79.63;94501.75;5065067;28;20025;-82
2022/11/09 02:23:54;;;;;;;38.00;20.50;;;;;;;8.16;79.29;94499.91;5066515;28;20024;-82
2022/11/09 02:26:29;;;;;;;45.20;20.13;;;;;;;8.17;79.18;94504.13;5066863;28;20024;-83
2022/11/09 02:28:56;;;;;;;40.22;21.48;;;;;;;8.15;79.22;94498.31;5066378;28;20028;-82
2022/11/09 02:31:26;;;;;;;40.67;21.10;;;;;;;8.16;80.63;94505.22;5066599;28;20265;-82
2022/11/09 02:33:54;;;;;;;44.22;22.02;;;;;;;8.17;80.76;94504.13;5065308;28;20021;-82
2022/11/09 02:36:23;;;;;;;42.92;21.80;;;;;;;8.16;80.50;94507.88;5066553;28;20199;-83
2022/11/09 02:38:51;;;;;;;37.58;20.42;;;;;;;8.14;79.42;94499.41;5065436;28;20017;-82
2022/11/09 02:41:18;;;;;;;35.88;20.50;;;;;;;8.11;78.49;94502.59;5066582;28;20021;-83
2022/11/09 02:43:43;;;;;;;35.65;19.75;;;;;;;8.07;78.65;94498.94;5066317;28;20027;-83
2022/11/09 02:46:08;;;;;;;37.35;19.70;;;;;;;8.06;78.66;94499.19;5066205;28;20040;-83
2022/11/09 02:48:34;;;;;;;34.58;20.23;;;;;;;8.01;78.62;94498.19;5066016;28;20088;-83
2022/11/09 02:50:59;;;;;;;35.22;20.42;;;;;;;8.02;78.80;94491.03;5066383;28;20012;-83
2022/11/09 02:53:25;;;;;;;41.92;21.48;;;;;;;8.07;78.99;94498.94;5066225;28;20382;-83
2022/11/09 02:55:50;;;;;;;38.47;20.95;;;;;;;8.06;78.78;94502.66;5066338;28;20249;-83
2022/11/09 02:58:16;;;;;;;37.33;20.63;;;;;;;8.07;78.12;94492.84;5065869;28;20044;-83
2022/11/09 03:00:41;;;;;;;41.53;21.92;;;;;;;8.04;77.91;94502.94;5065956;28;20338;-83
2022/11/09 03:03:07;;;;;;;40.13;22.63;;;;;;;8.00;77.75;94501.94;5066032;28;20035;-83
2022/11/09 03:05:32;;;;;;;37.08;21.20;;;;;;;7.99;78.01;94505.63;5065929;28;20326;-83
2022/11/09 03:08:01;;;;;;;37.60;21.45;;;;;;;8.00;77.78;94506.44;5065826;28;20032;-82
2022/11/09 03:10:27;;;;;;;36.55;21.48;;;;;;;7.99;77.93;94497.66;5065781;28;20039;-82
2022/11/09 03:12:53;;;;;;;34.30;20.63;;;;;;;8.01;77.74;94503.50;5065704;28;20115;-83
2022/11/09 03:15:19;;;;;;;39.53;21.85;;;;;;;7.98;78.19;94505.94;5065898;28;20033;-84
2022/11/09 03:17:44;;;;;;;38.47;20.30;;;;;;;7.98;77.72;94497.97;5064553;28;20373;-83
2022/11/09 03:20:10;;;;;;;44.22;20.10;;;;;;;7.98;77.42;94501.41;5065706;28;20025;-82
2022/11/09 03:22:35;;;;;;;35.58;20.88;;;;;;;7.98;76.97;94503.28;5065724;28;20025;-83
2022/11/09 03:25:01;;;;;;;37.83;21.08;;;;;;;7.95;77.21;94503.81;5065420;28;20319;-83
2022/11/09 03:27:26;;;;;;;41.45;22.20;;;;;;;7.95;77.38;94504.63;5065498;28;20355;-83
2022/11/09 03:29:51;;;;;;;38.35;21.83;;;;;;;7.94;77.20;94502.25;5065396;28;20325;-83
2022/11/09 03:32:17;;;;;;;41.47;22.52;;;;;;;7.94;77.50;94504.91;5064682;28;20021;-82
2022/11/09 03:34:42;;;;;;;41.05;21.95;;;;;;;7.92;77.47;94509.72;5065385;28;20098;-83
2022/11/09 03:37:08;;;;;;;40.20;23.25;;;;;;;7.92;77.46;94502.53;5065238;28;20017;-83
2022/11/09 03:39:33;;;;;;;40.75;22.25;;;;;;;7.90;77.03;94502.03;5065404;28;20019;-83
2022/11/09 03:41:59;;;;;;;43.95;22.42;;;;;;;7.82;77.37;94500.75;5065155;28;20322;-83
2022/11/09 03:44:24;;;;;;;40.35;22.73;;;;;;;7.82;77.78;94506.06;5065078;28;20017;-80
2022/11/09 03:46:50;;;;;;;42.95;22.80;;;;;;;7.80;77.83;94507.44;5065281;28;20017;-81
2022/11/09 03:49:15;;;;;;;42.08;22.27;;;;;;;7.78;78.21;94514.88;5065126;28;20021;-81
2022/11/09 03:51:40;;;;;;;38.70;22.08;;;;;;;7.76;78.61;94509.84;5065301;28;20511;-81
2022/11/09 03:54:06;;;;;;;45.35;20.85;;;;;;;7.78;78.66;94510.34;5065175;28;20033;-82
2022/11/09 03:56:31;;;;;;;37.72;20.17;;;;;;;7.79;78.42;94514.56;5097346;28;20037;-82
2022/11/09 03:58:57;;;;;;;37.90;20.10;;;;;;;7.78;78.71;94507.69;5064846;28;20040;-82
2022/11/09 04:01:22;;;;;;;38.22;21.30;;;;;;;7.79;79.19;94517.22;5064746;28;20025;-81
2022/11/09 04:03:47;;;;;;;35.70;20.05;;;;;;;7.80;79.12;94510.06;5065002;28;20085;-81
2022/11/09 04:06:13;;;;;;;45.22;23.48;;;;;;;7.77;79.17;94511.41;5064903;28;20016;-80
2022/11/09 04:08:39;;;;;;;35.15;20.95;;;;;;;7.78;78.95;94514.88;5064654;28;20029;-81
2022/11/09 04:11:04;;;;;;;30.55;18.48;;;;;;;7.79;78.89;94511.91;5064706;28;20017;-81
2022/11/09 04:13:29;;;;;;;39.88;20.10;;;;;;;7.77;79.50;94513.28;5064447;28;20021;-81
2022/11/09 04:15:55;;;;;;;34.55;19.33;;;;;;;7.77;79.54;94515.94;5064474;28;20268;-81
2022/11/09 04:18:20;;;;;;;36.17;17.85;;;;;;;7.77;78.80;94518.59;5064767;28;20053;-81
2022/11/09 04:20:46;;;;;;;31.67;17.42;;;;;;;7.77;78.72;94514.06;5063410;28;20021;-81
2022/11/09 04:23:12;;;;;;;31.70;18.58;;;;;;;7.75;78.58;94510.88;5064344;28;20021;-81
2022/11/09 04:25:39;;;;;;;34.03;18.15;;;;;;;7.73;78.65;94507.72;5064322;28;20250;-80
2022/11/09 04:28:07;;;;;;;29.67;16.77;;;;;;;7.75;78.48;94512.75;5064146;28;20021;-81
2022/11/09 04:30:34;;;;;;;32.53;18.77;;;;;;;7.70;78.87;94510.94;5064087;28;20017;-80
2022/11/09 04:33:01;;;;;;;41.70;19.95;;;;;;;7.69;79.25;94514.66;5064286;28;20017;-80
2022/11/09 04:35:28;;;;;;;37.15;20.27;;;;;;;7.69;80.39;94511.22;5064057;28;20306;-81
2022/11/09 04:38:01;;;;;;;35.63;19.05;;;;;;;7.64;80.60;94509.41;5064347;28;20027;-81
2022/11/09 04:40:28;;;;;;;43.10;19.70;;;;;;;7.64;80.17;94512.06;5064236;28;20021;-80
2022/11/09 04:42:54;;;;;;;32.88;18.67;;;;;;;7.62;79.79;94507.03;5063931;28;20187;-80
2022/11/09 04:45:21;;;;;;;37.55;19.80;;;;;;;7.63;80.80;94508.63;5063974;28;20067;-81
2022/11/09 04:47:47;;;;;;;40.35;20.13;;;;;;;7.64;81.08;94504.09;5063923;28;20145;-80
2022/11/09 04:50:13;;;;;;;35.17;19.08;;;;;;;7.57;80.88;94509.75;5063941;28;20099;-81
2022/11/09 04:52:38;;;;;;;34.70;19.90;;;;;;;7.61;80.57;94515.25;5063950;28;20023;-81
2022/11/09 04:55:04;;;;;;;45.85;22.52;;;;;;;7.60;80.98;94525.09;5063768;28;20021;-81
2022/11/09 04:57:30;;;;;;;45.40;22.58;;;;;;;7.63;81.71;94529.03;5063468;28;20045;-81
2022/11/09 04:59:55;;;;;;;38.00;22.33;;;;;;;7.67;81.99;94524.75;5063650;28;20025;-81
2022/11/09 05:02:21;;;;;;;39.92;21.00;;;;;;;7.73;81.58;94528.94;5063885;28;20021;-80
2022/11/09 05:04:46;;;;;;;39.97;21.55;;;;;;;7.75;81.12;94526.81;5063695;28;20044;-83
2022/11/09 05:07:12;;;;;;;48.63;23.13;;;;;;;7.74;80.77;94522.59;5063524;28;20091;-81
2022/11/09 05:09:37;;;;;;;42.45;21.23;;;;;;;7.78;80.96;94528.94;5063536;28;20029;-82
2022/11/09 05:12:03;;;;;;;41.72;22.50;;;;;;;7.79;80.40;94532.38;5063388;28;20017;-81
2022/11/09 05:14:28;;;;;;;42.78;22.45;;;;;;;7.78;80.22;94531.56;5063575;28;20029;-82
2022/11/09 05:16:54;;;;;;;41.53;21.60;;;;;;;7.80;79.73;94533.97;5063451;28;20307;-82
2022/11/09 05:19:19;;;;;;;50.78;26.75;;;;;;;7.76;79.45;94532.94;5063375;28;20040;-82
2022/11/09 05:21:44;;;;;;;42.67;23.00;;;;;;;7.71;79.39;94536.41;5063226;28;20342;-82
2022/11/09 05:24:10;;;;;;;42.70;22.48;;;;;;;7.68;79.34;94536.19;5063385;28;20103;-82
2022/11/09 05:26:40;;;;;;;46.50;21.40;;;;;;;7.71;79.24;94532.97;5063276;28;20191;-82
2022/11/09 05:29:08;;;;;;;38.70;20.48;;;;;;;7.75;78.66;94541.94;5063096;28;20342;-82
2022/11/09 05:31:34;;;;;;;40.17;21.73;;;;;;;7.79;78.76;94549.06;5062984;28;20023;-81
2022/11/09 05:34:00;;;;;;;38.65;21.17;;;;;;;7.80;78.92;94541.94;5062098;28;20017;-81
2022/11/09 05:36:27;;;;;;;41.60;21.55;;;;;;;7.83;78.67;94539.47;5063207;28;20311;-81
2022/11/09 05:38:53;;;;;;;45.78;20.05;;;;;;;7.88;79.21;94549.28;5063027;28;20013;-81
2022/11/09 05:41:18;;;;;;;38.30;21.67;;;;;;;7.90;79.04;94546.34;5062866;28;20341;-81
2022/11/09 05:43:44;;;;;;;37.03;20.27;;;;;;;7.89;79.20;94544.75;5061893;28;20029;-81
2022/11/09 05:46:14;;;;;;;40.45;20.83;;;;;;;7.96;79.58;94551.34;5063098;28;20017;-82
2022/11/09 05:48:40;;;;;;;44.25;22.00;;;;;;;7.99;80.32;94555.28;5062944;28;20100;-83
2022/11/09 05:51:07;;;;;;;43.20;21.92;;;;;;;8.04;79.93;94552.59;5062762;28;20218;-82
2022/11/09 05:53:32;;;;;;;42.65;22.60;;;;;;;8.07;79.85;94556.56;5062906;28;20027;-81
2022/11/09 05:56:06;;;;;;;41.20;21.55;;;;;;;8.08;80.24;94560.78;5062542;28;20036;-81
2022/11/09 05:58:36;;;;;;;35.40;19.67;;;;;;;8.12;79.41;94565.28;5062619;28;20037;-83
2022/11/09 06:01:07;;;;;;;48.78;22.30;;;;;;;8.14;79.18;94565.78;5062612;28;20021;-81
2022/11/09 06:03:32;;;;;;;44.17;21.77;;;;;;;8.18;79.37;94577.44;5062594;28;20036;-81
2022/11/09 06:06:03;;;;;;;42.35;22.23;;;;;;;8.28;79.13;94565.09;5062741;28;20087;-83
2022/11/09 06:08:29;;;;;;;44.17;22.33;;;;;;;8.32;79.84;94576.75;5062535;28;20029;-83
2022/11/09 06:11:02;;;;;;;39.95;21.38;;;;;;;8.39;79.99;94583.31;5062677;28;20315;-82
2022/11/09 06:13:28;;;;;;;47.28;21.42;;;;;;;8.42;79.83;94577.47;5062564;28;20055;-82
2022/11/09 06:15:58;;;;;;;45.67;21.48;;;;;;;8.46;79.84;94583.00;5062743;28;20092;-82
2022/11/09 06:18:27;;;;;;;39.10;20.23;;;;;;;8.49;79.70;94582.47;5062651;28;20039;-82
2022/11/09 06:20:54;;;;;;;47.00;21.95;;;;;;;8.54;79.41;94585.06;5062672;28;20021;-82
2022/11/09 06:23:24;;;;;;;49.90;23.25;;;;;;;8.59;79.57;94582.34;5062406;28;20024;-82
2022/11/09 06:25:57;;;;;;;45.38;21.40;;;;;;;8.66;79.92;94586.53;5062636;28;20028;-82
2022/11/09 06:28:23;;;;;;;45.10;23.02;;;;;;;8.72;80.40;94588.06;5062589;28;20021;-82
2022/11/09 06:30:48;;;;;;;40.88;22.17;;;;;;;8.82;80.30;94582.63;5062557;28;20139;-79
2022/11/09 06:33:14;;;;;;;44.25;24.45;;;;;;;8.92;80.52;94582.50;5062298;28;20016;-79
2022/11/09 06:35:39;;;;;;;43.55;22.45;;;;;;;9.00;80.49;94583.75;5062377;28;20254;-79
2022/11/09 06:38:05;;;;;;;42.38;21.92;;;;;;;9.08;80.42;94577.00;5062559;28;20028;-78
2022/11/09 06:40:30;;;;;;;45.63;22.00;;;;;;;9.18;80.60;94587.50;5062319;28;20017;-78
2022/11/09 06:42:58;;;;;;;43.00;22.83;;;;;;;9.29;80.37;94578.31;5062422;28;20055;-79
2022/11/09 06:45:23;;;;;;;51.25;23.52;;;;;;;9.34;80.05;94586.25;5060987;28;20016;-79
2022/11/09 06:47:49;;;;;;;46.60;23.77;;;;;;;9.42;79.64;94588.25;5062420;28;20025;-79
2022/11/09 06:50:14;;;;;;;41.40;22.63;;;;;;;9.50;79.24;94580.69;5062202;28;20021;-79
2022/11/09 06:52:40;;;;;;;44.55;21.75;;;;;;;9.48;79.41;94582.84;5060882;28;20079;-79
2022/11/09 06:55:07;;;;;;;43.20;22.45;;;;;;;9.49;79.53;94574.59;5062102;28;20207;-80
2022/11/09 06:57:33;;;;;;;47.38;24.73;;;;;;;9.46;79.63;94577.03;5062300;28;20052;-80
2022/11/09 06:59:59;;;;;;;48.75;22.77;;;;;;;9.48;79.84;94588.97;5062162;28;20029;-80
2022/11/09 07:02:24;;;;;;;50.55;23.60;;;;;;;9.39;80.22;94586.16;5061030;28;20032;-80
2022/11/09 07:04:51;;;;;;;44.65;24.35;;;;;;;9.47;80.41;94579.41;5061076;28;20203;-81
2022/11/09 07:07:16;;;;;;;48.30;24.45;;;;;;;9.53;80.32;94593.44;5062491;28;20040;-81
2022/11/09 07:09:42;;;;;;;46.63;24.52;;;;;;;9.60;80.15;94588.53;5065825;28;20348;-81
2022/11/09 07:12:08;;;;;;;45.83;23.70;;;;;;;9.63;79.79;94591.41;5065598;28;20092;-81
2022/11/09 07:14:34;;;;;;;50.47;24.63;;;;;;;9.62;79.67;94583.72;5065886;28;20025;-81
2022/11/09 07:17:00;;;;;;;42.78;23.55;;;;;;;9.69;79.80;94586.81;5065599;28;20048;-81
2022/11/09 07:19:28;;;;;;;49.00;23.83;;;;;;;9.81;79.64;94589.81;5065658;28;20218;-77
2022/11/09 07:21:54;;;;;;;44.63;24.27;;;;;;;9.92;79.76;94585.13;5065458;28;20311;-81
2022/11/09 07:24:20;;;;;;;55.67;26.08;;;;;;;10.02;79.39;94584.97;5065132;28;20028;-81
2022/11/09 07:26:47;;;;;;;44.72;23.65;;;;;;;10.14;79.02;94581.84;5063692;28;20315;-81
2022/11/09 07:29:12;;;;;;;43.90;23.80;;;;;;;10.23;78.12;94580.06;5063608;28;20350;-81
2022/11/09 07:31:37;;;;;;;41.72;23.75;;;;;;;10.29;77.51;94578.13;5063397;28;20029;-81
2022/11/09 07:34:03;;;;;;;44.80;23.20;;;;;;;10.34;77.41;94577.25;5063486;28;20029;-81
2022/11/09 07:36:30;;;;;;;46.60;24.80;;;;;;;10.39;76.89;94577.19;5063715;28;20099;-81
2022/11/09 07:38:56;;;;;;;50.53;24.15;;;;;;;10.38;77.25;94580.91;5063537;28;20211;-81
2022/11/09 07:41:22;;;;;;;43.28;24.60;;;;;;;10.44;78.07;94582.41;5063782;28;20025;-81
2022/11/09 07:43:48;;;;;;;46.05;24.20;;;;;;;10.49;77.90;94579.66;5065230;28;20139;-79
2022/11/09 07:46:14;;;;;;;50.13;25.58;;;;;;;10.51;77.02;94579.38;5064908;28;20021;-82
2022/11/09 07:48:40;;;;;;;40.38;21.90;;;;;;;10.51;76.73;94582.84;5064514;28;20307;-82
2022/11/09 07:51:05;;;;;;;47.80;24.38;;;;;;;10.52;77.20;94581.75;5063838;28;20027;-82
2022/11/09 07:53:31;;;;;;;40.88;23.25;;;;;;;10.58;77.15;94588.56;5064943;28;20028;-82
2022/11/09 07:55:59;;;;;;;47.08;25.55;;;;;;;10.54;77.02;94582.25;5064635;28;20032;-81
2022/11/09 07:58:25;;;;;;;47.35;24.45;;;;;;;10.58;77.10;94585.91;5064602;28;20036;-81
2022/11/09 08:00:50;;;;;;;45.88;24.80;;;;;;;10.62;76.00;94576.25;5064721;28;20234;-81
2022/11/09 08:03:17;;;;;;;40.88;23.67;;;;;;;10.70;74.98;94589.94;5064692;28;20029;-81
2022/11/09 08:05:43;;;;;;;43.20;23.27;;;;;;;10.68;75.19;94587.56;5064309;28;20104;-81
2022/11/09 08:08:10;;;;;;;39.42;22.13;;;;;;;10.74;75.65;94585.63;5064563;28;20044;-81
2022/11/09 08:10:36;;;;;;;43.97;24.10;;;;;;;10.80;74.76;94587.09;5064251;28;20267;-81
2022/11/09 08:13:07;;;;;;;50.08;23.90;;;;;;;10.90;74.81;94584.22;5064462;28;20082;-81
2022/11/09 08:15:34;;;;;;;42.42;23.42;;;;;;;10.99;74.60;94585.13;5064420;28;20025;-80
2022/11/09 08:18:01;;;;;;;51.75;24.00;;;;;;;11.07;74.08;94580.16;5063955;28;20024;-81
2022/11/09 08:20:28;;;;;;;41.58;24.33;;;;;;;11.13;73.66;94584.31;5064447;28;20033;-80
2022/11/09 08:22:53;;;;;;;44.15;24.27;;;;;;;11.18;73.29;94582.34;5064252;28;20021;-82
2022/11/09 08:25:18;;;;;;;47.22;25.73;;;;;;;11.23;72.89;94573.44;5064671;28;20266;-83
2022/11/09 08:27:44;;;;;;;42.45;23.92;;;;;;;11.36;73.29;94583.28;5064238;28;20316;-81
2022/11/09 08:30:19;;;;;;;46.92;23.55;;;;;;;11.39;73.23;94590.69;5064430;28;20027;-81
2022/11/09 08:32:45;;;;;;;46.50;23.88;;;;;;;11.47;72.16;94593.75;5064238;28;20278;-81
2022/11/09 08:35:16;;;;;;;48.45;23.02;;;;;;;11.55;71.26;94579.69;5064255;28;20092;-80
2022/11/09 08:37:46;;;;;;;43.38;22.35;;;;;;;11.65;70.05;94584.81;5063837;28;20100;-77
2022/11/09 08:40:14;;;;;;;47.58;22.95;;;;;;;11.68;69.97;94594.88;5064028;28;20032;-78
2022/11/09 08:42:39;;;;;;;43.28;22.48;;;;;;;11.75;69.35;94586.47;5064010;28;20025;-79
2022/11/09 08:45:05;;;;;;;46.17;24.75;;;;;;;11.77;69.39;94585.06;5063946;28;20345;-78
2022/11/09 08:47:31;;;;;;;50.72;24.10;;;;;;;11.88;69.63;94582.16;5063705;28;20021;-78
2022/11/09 08:49:57;;;;;;;37.38;22.55;;;;;;;11.95;69.45;94585.22;5063876;28;20028;-78
2022/11/09 08:52:22;;;;;;;43.33;21.92;;;;;;;12.02;69.20;94578.34;5063675;28;20029;-78
2022/11/09 08:54:48;;;;;;;40.30;22.02;;;;;;;12.14;69.68;94585.03;5063848;28;20274;-77
2022/11/09 08:57:13;;;;;;;44.65;24.23;;;;;;;12.27;69.13;94583.38;5063472;28;20064;-80
2022/11/09 08:59:39;;;;;;;48.38;23.75;;;;;;;12.36;67.97;94582.34;5063774;28;20108;-80
2022/11/09 09:02:04;;;;;;;47.25;25.27;;;;;;;12.35;68.65;94588.00;5063822;28;20032;-79
2022/11/09 09:04:30;;;;;;;50.13;24.40;;;;;;;12.33;68.53;94582.94;5063578;28;20080;-77
2022/11/09 09:06:55;;;;;;;47.28;24.73;;;;;;;12.37;68.02;94578.56;5063538;28;20028;-79
2022/11/09 09:09:21;;;;;;;45.85;25.45;;;;;;;12.48;67.71;94573.75;5063809;28;20082;-78
2022/11/09 09:11:47;;;;;;;49.00;24.35;;;;;;;12.53;67.60;94580.84;5063560;28;20062;-78
2022/11/09 09:14:14;;;;;;;46.50;25.48;;;;;;;12.57;67.16;94576.47;5063251;28;20094;-78
2022/11/09 09:16:39;;;;;;;46.42;25.38;;;;;;;12.54;67.26;94587.78;5063245;28;20290;-79
2022/11/09 09:19:05;;;;;;;40.97;24.55;;;;;;;12.52;67.85;94581.97;5063253;28;20021;-78
2022/11/09 09:21:30;;;;;;;38.60;22.65;;;;;;;12.57;67.51;94574.56;5062277;28;20272;-79
2022/11/09 09:23:56;;;;;;;45.45;24.10;;;;;;;12.64;67.16;94569.59;5063257;28;20319;-80
2022/11/09 09:26:21;;;;;;;51.28;27.50;;;;;;;12.75;67.29;94569.31;5063238;28;20184;-80
2022/11/09 09:28:47;;;;;;;43.83;24.25;;;;;;;12.85;67.13;94571.72;5063131;28;20032;-78
2022/11/09 09:31:12;;;;;;;49.38;26.10;;;;;;;12.93;67.05;94568.28;5062487;28;20058;-78
2022/11/09 09:33:37;;;;;;;49.50;25.73;;;;;;;13.05;66.73;94565.00;5062955;28;20374;-78
2022/11/09 09:36:03;;;;;;;47.15;26.27;;;;;;;13.16;65.81;94576.97;5062908;28;20091;-78
2022/11/09 09:38:29;;;;;;;44.33;24.30;;;;;;;13.17;65.43;94564.41;5062963;28;20108;-76
2022/11/09 09:40:59;;;;;;;49.97;25.60;;;;;;;13.27;65.23;94564.13;5062919;28;20111;-79
2022/11/09 09:43:32;;;;;;;45.47;23.85;;;;;;;13.37;64.67;94560.38;5062793;28;20070;-81
2022/11/09 09:45:59;;;;;;;39.50;24.60;;;;;;;13.46;64.60;94557.72;5062870;28;20020;-79
2022/11/09 09:48:47;;;;;;;40.95;24.40;;;;;;;13.60;64.74;94553.00;5062755;28;20091;-79
2022/11/09 09:51:21;;;;;;;38.30;22.00;;;;;;;13.68;63.88;94554.88;5062540;28;20036;-78
2022/11/09 09:53:52;;;;;;;44.45;23.27;;;;;;;13.82;62.81;94549.38;5062622;28;20028;-76
2022/11/09 09:56:25;;;;;;;53.50;23.85;;;;;;;13.93;62.60;94547.16;5062855;28;20021;-77
2022/11/09 09:59:13;;;;;;;49.20;24.08;;;;;;;13.94;61.55;94536.13;5062833;28;20045;-79
2022/11/09 10:01:43;;;;;;;39.90;22.42;;;;;;;14.02;62.00;94545.22;5062866;28;20035;-79
2022/11/09 10:04:33;;;;;;;37.10;21.50;;;;;;;14.03;61.49;94536.09;5062748;28;20071;-77
2022/11/09 10:07:27;;;;;;;47.38;23.23;;;;;;;14.06;61.87;94538.13;5062590;28;20039;-76
2022/11/09 10:10:09;;;;;;;40.65;23.17;;;;;;;14.18;61.91;94532.13;5043075;28;20224;-77
2022/11/09 10:12:53;;;;;;;40.03;23.67;;;;;;;14.30;61.43;94537.63;5062642;28;20090;-79
2022/11/09 10:15:32;;;;;;;35.45;21.25;;;;;;;14.36;59.28;94530.19;5062396;28;20084;-79
2022/11/09 10:18:06;;;;;;;38.63;21.90;;;;;;;14.46;59.76;94524.47;5062431;28;20398;-79
2022/11/09 10:20:38;;;;;;;42.70;22.40;;;;;;;14.62;59.72;94525.56;5062134;28;20305;-79
2022/11/09 10:23:13;;;;;;;47.38;21.48;;;;;;;14.79;59.19;94521.22;5062520;28;20029;-79
2022/11/09 10:25:42;;;;;;;43.10;21.92;;;;;;;14.90;57.54;94525.13;5062428;28;20025;-79
2022/11/09 10:28:12;;;;;;;46.63;22.25;;;;;;;14.97;57.37;94527.28;5061854;28;20028;-79
2022/11/09 10:30:38;;;;;;;49.85;23.23;;;;;;;15.00;56.82;94526.63;5062355;28;20051;-79
2022/11/09 10:33:10;;;;;;;41.45;20.83;;;;;;;15.00;56.83;94519.38;5062318;28;20017;-79
2022/11/09 10:35:52;;;;;;;38.78;21.95;;;;;;;15.02;56.16;94524.41;5062490;28;20036;-79
2022/11/09 10:38:26;;;;;;;39.63;21.17;;;;;;;14.88;56.62;94515.81;5062730;28;20017;-79
2022/11/09 10:40:57;;;;;;;38.30;19.75;;;;;;;14.89;56.54;94520.84;5062481;28;20214;-79
2022/11/09 10:43:23;;;;;;;39.77;20.57;;;;;;;14.94;56.40;94512.63;5066268;28;20056;-81
2022/11/09 10:45:59;;;;;;;42.22;22.73;;;;;;;15.02;56.15;94503.72;5066422;28;20036;-80
2022/11/09 10:48:36;;;;;;;39.80;20.73;;;;;;;15.02;55.91;94506.41;5066022;28;20024;-81
2022/11/09 10:51:02;;;;;;;36.88;22.08;;;;;;;15.07;55.64;94493.91;5066091;28;20040;-80
2022/11/09 10:53:30;;;;;;;39.35;20.83;;;;;;;15.02;55.31;94498.38;5065976;28;20021;-81
2022/11/09 10:56:18;;;;;;;38.17;21.00;;;;;;;15.04;55.48;94501.50;5065800;28;20017;-81
2022/11/09 10:58:52;;;;;;;38.58;20.63;;;;;;;15.01;55.45;94494.09;5066007;28;20288;-81
2022/11/09 11:01:23;;;;;;;39.80;19.83;;;;;;;15.12;55.96;94496.41;5066112;28;20082;-80
2022/11/09 11:03:51;;;;;;;38.05;21.45;;;;;;;15.28;55.02;94486.66;5066205;28;20021;-80
2022/11/09 11:06:19;;;;;;;47.35;20.75;;;;;;;15.40;55.19;94494.78;5066005;28;20017;-81
2022/11/09 11:09:12;;;;;;;41.90;20.25;;;;;;;15.54;53.38;94488.38;5064676;28;20075;-81
2022/11/09 11:11:38;;;;;;;36.10;21.85;;;;;;;15.61;52.79;94491.28;5060208;28;20331;-80
2022/11/09 11:14:33;;;;;;;38.55;21.73;;;;;;;15.69;53.02;94477.00;5065729;28;20032;-81
2022/11/09 11:16:58;;;;;;;38.30;21.25;;;;;;;15.71;52.91;94471.31;5065780;28;20342;-81
2022/11/09 11:19:44;;;;;;;37.85;22.98;;;;;;;15.72;53.11;94471.00;5064311;28;20020;-81
2022/11/09 11:22:18;;;;;;;36.95;20.98;;;;;;;15.86;52.56;94480.69;5065483;28;20029;-81
2022/11/09 11:24:57;;;;;;;36.92;22.45;;;;;;;15.83;53.22;94474.06;5065548;28;20071;-80